sensor_id;sensor_type;location;lat;lon;timestamp;pressure;altitude;pressure_sealevel;temperature;humidity
56721;BME280;53183;47.412;18.884;2023-12-29T00:00:30;99668.13;;;0.15;100.00
56721;BME280;53183;47.412;18.884;2023-12-29T00:02:57;99668.13;;;0.18;100.00
56721;BME280;53183;47.412;18.884;2023-12-29T00:05:24;99662.00;;;0.23;100.00
56721;BME280;53183;47.412;18.884;2023-12-29T00:07:51;99663.69;;;0.28;100.00
56721;BME280;53183;47.412;18.884;2023-12-29T00:10:19;99657.63;;;0.30;100.00
56721;BME280;53183;47.412;18.884;2023-12-29T00:12:47;99655.84;;;0.32;100.00
56721;BME280;53183;47.412;18.884;2023-12-29T00:15:17;99660.19;;;0.32;100.00
56721;BME280;53183;47.412;18.884;2023-12-29T00:17:45;99648.91;;;0.34;100.00
56721;BME280;53183;47.412;18.884;2023-12-29T00:20:14;99654.97;;;0.36;100.00
56721;BME280;53183;47.412;18.884;2023-12-29T00:23:00;99645.38;;;0.40;100.00
56721;BME280;53183;47.412;18.884;2023-12-29T00:25:27;99641.84;;;0.47;100.00
56721;BME280;53183;47.412;18.884;2023-12-29T00:27:54;99637.47;;;0.49;100.00
56721;BME280;53183;47.412;18.884;2023-12-29T00:30:23;99636.59;;;0.53;100.00
56721;BME280;53183;47.412;18.884;2023-12-29T00:33:05;99641.78;;;0.53;100.00
56721;BME280;53183;47.412;18.884;2023-12-29T00:35:36;99639.16;;;0.56;100.00
56721;BME280;53183;47.412;18.884;2023-12-29T00:38:05;99646.94;;;0.59;100.00
56721;BME280;53183;47.412;18.884;2023-12-29T00:40:33;99643.37;;;0.66;100.00
56721;BME280;53183;47.412;18.884;2023-12-29T00:43:01;99638.97;;;0.73;100.00
56721;BME280;53183;47.412;18.884;2023-12-29T00:45:28;99638.09;;;0.71;100.00
56721;BME280;53183;47.412;18.884;2023-12-29T00:48:00;99632.84;;;0.77;100.00
56721;BME280;53183;47.412;18.884;2023-12-29T00:50:28;99639.72;;;0.81;100.00
56721;BME280;53183;47.412;18.884;2023-12-29T00:52:56;99630.25;;;0.77;100.00
56721;BME280;53183;47.412;18.884;2023-12-29T00:55:23;99638.03;;;0.76;100.00
56721;BME280;53183;47.412;18.884;2023-12-29T00:57:51;99635.50;;;0.73;100.00
56721;BME280;53183;47.412;18.884;2023-12-29T01:00:19;99631.12;;;0.75;100.00
56721;BME280;53183;47.412;18.884;2023-12-29T01:02:46;99628.53;;;0.75;100.00
56721;BME280;53183;47.412;18.884;2023-12-29T01:05:16;99630.25;;;0.77;100.00
56721;BME280;53183;47.412;18.884;2023-12-29T01:07:46;99626.78;;;0.77;100.00
56721;BME280;53183;47.412;18.884;2023-12-29T01:10:14;99626.75;;;0.80;100.00
56721;BME280;53183;47.412;18.884;2023-12-29T01:12:43;99636.25;;;0.81;100.00
56721;BME280;53183;47.412;18.884;2023-12-29T01:15:10;99638.75;;;0.90;100.00
56721;BME280;53183;47.412;18.884;2023-12-29T01:17:38;99637.13;;;0.83;100.00
56721;BME280;53183;47.412;18.884;2023-12-29T01:20:07;99642.41;;;0.74;100.00
56721;BME280;53183;47.412;18.884;2023-12-29T01:22:35;99638.09;;;0.73;100.00
56721;BME280;53183;47.412;18.884;2023-12-29T01:25:03;99642.37;;;0.77;100.00
56721;BME280;53183;47.412;18.884;2023-12-29T01:27:30;99631.91;;;0.83;100.00
56721;BME280;53183;47.412;18.884;2023-12-29T01:29:58;99628.37;;;0.85;100.00
56721;BME280;53183;47.412;18.884;2023-12-29T01:32:29;99637.03;;;0.87;100.00
56721;BME280;53183;47.412;18.884;2023-12-29T01:34:57;99623.12;;;0.93;100.00
56721;BME280;53183;47.412;18.884;2023-12-29T01:37:25;99636.19;;;0.87;100.00
56721;BME280;53183;47.412;18.884;2023-12-29T01:39:52;99631.00;;;0.87;100.00
56721;BME280;53183;47.412;18.884;2023-12-29T01:42:20;99629.09;;;0.98;100.00
56721;BME280;53183;47.412;18.884;2023-12-29T01:44:48;99624.78;;;0.97;100.00
56721;BME280;53183;47.412;18.884;2023-12-29T01:47:22;99611.84;;;0.92;100.00
56721;BME280;53183;47.412;18.884;2023-12-29T01:49:49;99625.69;;;0.94;100.00
56721;BME280;53183;47.412;18.884;2023-12-29T01:52:19;99614.44;;;0.92;100.00
56721;BME280;53183;47.412;18.884;2023-12-29T01:54:49;99616.22;;;0.89;100.00
56721;BME280;53183;47.412;18.884;2023-12-29T01:57:17;99611.09;;;0.83;100.00
56721;BME280;53183;47.412;18.884;2023-12-29T01:59:45;99606.75;;;0.82;100.00
56721;BME280;53183;47.412;18.884;2023-12-29T02:02:12;99605.13;;;0.76;100.00
56721;BME280;53183;47.412;18.884;2023-12-29T02:04:41;99600.84;;;0.70;100.00
56721;BME280;53183;47.412;18.884;2023-12-29T02:07:09;99593.00;;;0.72;100.00
56721;BME280;53183;47.412;18.884;2023-12-29T02:09:37;99588.50;;;0.85;100.00
56721;BME280;53183;47.412;18.884;2023-12-29T02:12:05;99594.59;;;0.84;100.00
56721;BME280;53183;47.412;18.884;2023-12-29T02:14:32;99594.56;;;0.87;100.00
56721;BME280;53183;47.412;18.884;2023-12-29T02:17:10;99595.53;;;0.80;100.00
56721;BME280;53183;47.412;18.884;2023-12-29T02:19:44;99595.53;;;0.78;100.00
56721;BME280;53183;47.412;18.884;2023-12-29T02:22:12;99589.41;;;0.82;100.00
56721;BME280;53183;47.412;18.884;2023-12-29T02:24:47;99579.78;;;0.90;100.00
56721;BME280;53183;47.412;18.884;2023-12-29T02:30:02;99581.59;;;0.82;100.00
56721;BME280;53183;47.412;18.884;2023-12-29T02:32:33;99582.53;;;0.78;100.00
56721;BME280;53183;47.412;18.884;2023-12-29T02:35:02;99594.78;;;0.70;100.00
56721;BME280;53183;47.412;18.884;2023-12-29T02:37:31;99600.06;;;0.64;100.00
56721;BME280;53183;47.412;18.884;2023-12-29T02:39:58;99588.81;;;0.60;100.00
56721;BME280;53183;47.412;18.884;2023-12-29T02:42:29;99592.16;;;0.72;100.00
56721;BME280;53183;47.412;18.884;2023-12-29T02:44:56;99583.56;;;0.65;100.00
56721;BME280;53183;47.412;18.884;2023-12-29T02:47:23;99585.25;;;0.67;100.00
56721;BME280;53183;47.412;18.884;2023-12-29T02:49:50;99585.25;;;0.67;100.00
56721;BME280;53183;47.412;18.884;2023-12-29T02:52:18;99579.09;;;0.75;100.00
56721;BME280;53183;47.412;18.884;2023-12-29T02:54:45;99574.72;;;0.80;100.00
56721;BME280;53183;47.412;18.884;2023-12-29T02:57:12;99579.03;;;0.81;100.00
56721;BME280;53183;47.412;18.884;2023-12-29T02:59:39;99575.47;;;0.88;100.00
56721;BME280;53183;47.412;18.884;2023-12-29T03:02:06;99567.53;;;0.97;100.00
56721;BME280;53183;47.412;18.884;2023-12-29T03:04:35;99567.53;;;0.97;100.00
56721;BME280;53183;47.412;18.884;2023-12-29T03:07:03;99571.94;;;0.93;100.00
56721;BME280;53183;47.412;18.884;2023-12-29T03:09:30;99567.66;;;0.88;100.00
56721;BME280;53183;47.412;18.884;2023-12-29T03:11:58;99560.69;;;0.90;100.00
56721;BME280;53183;47.412;18.884;2023-12-29T03:14:26;99560.63;;;0.96;100.00
56721;BME280;53183;47.412;18.884;2023-12-29T03:16:53;99563.19;;;0.99;100.00
56721;BME280;53183;47.412;18.884;2023-12-29T03:19:21;99554.44;;;1.02;100.00
56721;BME280;53183;47.412;18.884;2023-12-29T03:21:53;99565.59;;;1.11;100.00
56721;BME280;53183;47.412;18.884;2023-12-29T03:24:22;99554.25;;;1.19;100.00
56721;BME280;53183;47.412;18.884;2023-12-29T03:26:49;99549.88;;;1.19;100.00
56721;BME280;53183;47.412;18.884;2023-12-29T03:29:16;99556.63;;;1.31;100.00
56721;BME280;53183;47.412;18.884;2023-12-29T03:31:44;99553.19;;;1.30;100.00
56721;BME280;53183;47.412;18.884;2023-12-29T03:34:12;99557.66;;;1.22;100.00
56721;BME280;53183;47.412;18.884;2023-12-29T03:36:40;99565.44;;;1.24;100.00
56721;BME280;53183;47.412;18.884;2023-12-29T03:39:08;99565.50;;;1.19;100.00
56721;BME280;53183;47.412;18.884;2023-12-29T03:41:35;99565.50;;;1.19;100.00
56721;BME280;53183;47.412;18.884;2023-12-29T03:44:02;99560.34;;;1.16;100.00
56721;BME280;53183;47.412;18.884;2023-12-29T03:46:30;99563.75;;;1.18;100.00
56721;BME280;53183;47.412;18.884;2023-12-29T03:48:58;99562.94;;;1.16;100.00
56721;BME280;53183;47.412;18.884;2023-12-29T03:51:26;99562.09;;;1.15;100.00
56721;BME280;53183;47.412;18.884;2023-12-29T03:53:54;99557.81;;;1.10;100.00
56721;BME280;53183;47.412;18.884;2023-12-29T03:56:21;99562.22;;;1.06;100.00
56721;BME280;53183;47.412;18.884;2023-12-29T03:58:49;99557.09;;;1.00;100.00
56721;BME280;53183;47.412;18.884;2023-12-29T04:01:17;99559.72;;;0.97;100.00
56721;BME280;53183;47.412;18.884;2023-12-29T04:03:46;99561.38;;;1.04;100.00
56721;BME280;53183;47.412;18.884;2023-12-29T04:06:13;99561.41;;;1.03;100.00
56721;BME280;53183;47.412;18.884;2023-12-29T04:08:41;99564.09;;;0.95;100.00
56721;BME280;53183;47.412;18.884;2023-12-29T04:11:09;99562.38;;;0.96;100.00
56721;BME280;53183;47.412;18.884;2023-12-29T04:13:37;99566.00;;;0.82;100.00
56721;BME280;53183;47.412;18.884;2023-12-29T04:16:04;99566.84;;;0.84;100.00
56721;BME280;53183;47.412;18.884;2023-12-29T04:18:33;99560.00;;;0.77;100.00
56721;BME280;53183;47.412;18.884;2023-12-29T04:21:01;99565.28;;;0.73;100.00
56721;BME280;53183;47.412;18.884;2023-12-29T04:23:30;99567.94;;;0.66;100.00
56721;BME280;53183;47.412;18.884;2023-12-29T04:25:57;99567.16;;;0.60;100.00
56721;BME280;53183;47.412;18.884;2023-12-29T04:28:24;99565.47;;;0.57;100.00
56721;BME280;53183;47.412;18.884;2023-12-29T04:30:53;99570.66;;;0.57;100.00
56721;BME280;53183;47.412;18.884;2023-12-29T04:33:21;99583.66;;;0.56;100.00
56721;BME280;53183;47.412;18.884;2023-12-29T04:35:49;99583.81;;;0.43;100.00
56721;BME280;53183;47.412;18.884;2023-12-29T04:38:17;99581.28;;;0.36;100.00
56721;BME280;53183;47.412;18.884;2023-12-29T04:40:47;99573.59;;;0.30;100.00
56721;BME280;53183;47.412;18.884;2023-12-29T04:43:14;99569.13;;;0.39;100.00
56721;BME280;53183;47.412;18.884;2023-12-29T04:45:41;99563.16;;;0.31;100.00
56721;BME280;53183;47.412;18.884;2023-12-29T04:48:09;99572.69;;;0.29;100.00
56721;BME280;53183;47.412;18.884;2023-12-29T04:50:37;99577.84;;;0.35;100.00
56721;BME280;53183;47.412;18.884;2023-12-29T04:53:04;99571.72;;;0.41;100.00
56721;BME280;53183;47.412;18.884;2023-12-29T04:55:32;99568.28;;;0.37;100.00
56721;BME280;53183;47.412;18.884;2023-12-29T04:58:00;99573.59;;;0.28;100.00
56721;BME280;53183;47.412;18.884;2023-12-29T05:00:28;99566.66;;;0.29;100.00
56721;BME280;53183;47.412;18.884;2023-12-29T05:02:56;99570.16;;;0.23;100.00
56721;BME280;53183;47.412;18.884;2023-12-29T05:05:23;99568.50;;;0.16;100.00
56721;BME280;53183;47.412;18.884;2023-12-29T05:07:50;99568.53;;;0.13;100.00
56721;BME280;53183;47.412;18.884;2023-12-29T05:10:18;99571.12;;;0.14;100.00
56721;BME280;53183;47.412;18.884;2023-12-29T05:12:46;99564.19;;;0.15;100.00
56721;BME280;53183;47.412;18.884;2023-12-29T05:15:13;99564.22;;;0.13;100.00
56721;BME280;53183;47.412;18.884;2023-12-29T05:17:41;99565.03;;;0.20;100.00
56721;BME280;53183;47.412;18.884;2023-12-29T05:20:11;99559.84;;;0.15;100.00
56721;BME280;53183;47.412;18.884;2023-12-29T05:22:38;99567.56;;;0.23;100.00
56721;BME280;53183;47.412;18.884;2023-12-29T05:25:07;99567.56;;;0.23;100.00
56721;BME280;53183;47.412;18.884;2023-12-29T05:27:35;99565.91;;;0.17;100.00
56721;BME280;53183;47.412;18.884;2023-12-29T05:30:05;99568.50;;;0.17;100.00
56721;BME280;53183;47.412;18.884;2023-12-29T05:32:33;99566.69;;;0.22;100.00
56721;BME280;53183;47.412;18.884;2023-12-29T05:35:00;99571.91;;;0.22;100.00
56721;BME280;53183;47.412;18.884;2023-12-29T05:37:28;99563.31;;;0.17;100.00
56721;BME280;53183;47.412;18.884;2023-12-29T05:39:56;99575.47;;;0.14;100.00
56721;BME280;53183;47.412;18.884;2023-12-29T05:42:23;99581.50;;;0.16;100.00
56721;BME280;53183;47.412;18.884;2023-12-29T05:44:55;99586.75;;;0.11;100.00
56721;BME280;53183;47.412;18.884;2023-12-29T05:47:22;99587.63;;;0.13;100.00
56721;BME280;53183;47.412;18.884;2023-12-29T05:49:49;99584.91;;;0.22;100.00
56721;BME280;53183;47.412;18.884;2023-12-29T05:52:17;99593.59;;;0.20;100.00
56721;BME280;53183;47.412;18.884;2023-12-29T05:54:45;99588.41;;;0.18;100.00
56721;BME280;53183;47.412;18.884;2023-12-29T05:57:14;99587.56;;;0.18;100.00
56721;BME280;53183;47.412;18.884;2023-12-29T05:59:42;99585.81;;;0.18;100.00
56721;BME280;53183;47.412;18.884;2023-12-29T06:02:09;99583.19;;;0.21;100.00
56721;BME280;53183;47.412;18.884;2023-12-29T06:04:37;99579.66;;;0.26;100.00
56721;BME280;53183;47.412;18.884;2023-12-29T06:07:05;99585.56;;;0.43;100.00
56721;BME280;53183;47.412;18.884;2023-12-29T06:09:32;99585.69;;;0.31;100.00
56721;BME280;53183;47.412;18.884;2023-12-29T06:12:00;99588.28;;;0.29;100.00
56721;BME280;53183;47.412;18.884;2023-12-29T06:14:27;99598.75;;;0.25;100.00
56721;BME280;53183;47.412;18.884;2023-12-29T06:16:55;99595.22;;;0.29;100.00
56721;BME280;53183;47.412;18.884;2023-12-29T06:19:22;99598.81;;;0.18;100.00
56721;BME280;53183;47.412;18.884;2023-12-29T06:21:50;99595.34;;;0.16;100.00
56721;BME280;53183;47.412;18.884;2023-12-29T06:24:17;99602.34;;;0.11;100.00
56721;BME280;53183;47.412;18.884;2023-12-29T06:26:47;99598.81;;;0.20;100.00
56721;BME280;53183;47.412;18.884;2023-12-29T06:29:14;99604.87;;;0.20;100.00
56721;BME280;53183;47.412;18.884;2023-12-29T06:31:42;99611.00;;;0.12;100.00
56721;BME280;53183;47.412;18.884;2023-12-29T06:34:10;99610.22;;;0.02;100.00
56721;BME280;53183;47.412;18.884;2023-12-29T06:36:38;99614.63;;;-0.08;100.00
56721;BME280;53183;47.412;18.884;2023-12-29T06:39:05;99608.56;;;-0.05;100.00
56721;BME280;53183;47.412;18.884;2023-12-29T06:41:33;99608.56;;;-0.05;100.00
56721;BME280;53183;47.412;18.884;2023-12-29T06:44:02;99614.66;;;-0.09;100.00
56721;BME280;53183;47.412;18.884;2023-12-29T06:46:29;99606.03;;;-0.14;100.00
56721;BME280;53183;47.412;18.884;2023-12-29T06:48:57;99606.91;;;-0.14;100.00
56721;BME280;53183;47.412;18.884;2023-12-29T06:51:25;99611.22;;;-0.10;100.00
56721;BME280;53183;47.412;18.884;2023-12-29T06:53:52;99607.69;;;-0.04;100.00
56721;BME280;53183;47.412;18.884;2023-12-29T06:56:20;99607.66;;;-0.01;100.00
56721;BME280;53183;47.412;18.884;2023-12-29T06:58:48;99609.34;;;0.05;100.00
56721;BME280;53183;47.412;18.884;2023-12-29T07:01:15;99611.00;;;0.13;100.00
56721;BME280;53183;47.412;18.884;2023-12-29T07:03:44;99611.84;;;0.17;100.00
56721;BME280;53183;47.412;18.884;2023-12-29T07:06:12;99611.81;;;0.18;100.00
56721;BME280;53183;47.412;18.884;2023-12-29T07:08:40;99611.75;;;0.25;100.00
56721;BME280;53183;47.412;18.884;2023-12-29T07:11:11;99616.88;;;0.29;100.00
56721;BME280;53183;47.412;18.884;2023-12-29T07:13:39;99609.97;;;0.30;100.00
56721;BME280;53183;47.412;18.884;2023-12-29T07:16:06;99610.81;;;0.33;100.00
56721;BME280;53183;47.412;18.884;2023-12-29T07:18:35;99615.94;;;0.38;100.00
56721;BME280;53183;47.412;18.884;2023-12-29T07:21:03;99610.69;;;0.42;100.00
56721;BME280;53183;47.412;18.884;2023-12-29T07:23:30;99606.25;;;0.52;100.00
56721;BME280;53183;47.412;18.884;2023-12-29T07:25:58;99617.47;;;0.56;100.00
56721;BME280;53183;47.412;18.884;2023-12-29T07:28:25;99623.47;;;0.62;100.00
56721;BME280;53183;47.412;18.884;2023-12-29T07:30:53;99627.75;;;0.68;100.00
56721;BME280;53183;47.412;18.884;2023-12-29T07:33:21;99619.00;;;0.72;100.00
56721;BME280;53183;47.412;18.884;2023-12-29T07:35:48;99629.34;;;0.78;100.00
56721;BME280;53183;47.412;18.884;2023-12-29T07:38:16;99630.09;;;0.88;100.00
56721;BME280;53183;47.412;18.884;2023-12-29T07:40:44;99622.16;;;0.99;100.00
56721;BME280;53183;47.412;18.884;2023-12-29T07:43:11;99626.31;;;1.13;100.00
56721;BME280;53183;47.412;18.884;2023-12-29T07:45:39;99626.28;;;1.16;100.00
56721;BME280;53183;47.412;18.884;2023-12-29T07:48:07;99611.38;;;1.25;100.00
56721;BME280;53183;47.412;18.884;2023-12-29T07:50:38;99623.31;;;1.43;100.00
56721;BME280;53183;47.412;18.884;2023-12-29T07:53:05;99618.78;;;1.55;100.00
56721;BME280;53183;47.412;18.884;2023-12-29T07:55:37;99611.69;;;1.65;100.00
56721;BME280;53183;47.412;18.884;2023-12-29T07:58:05;99609.84;;;1.72;100.00
56721;BME280;53183;47.412;18.884;2023-12-29T08:00:33;99605.28;;;1.84;100.00
56721;BME280;53183;47.412;18.884;2023-12-29T08:03:01;99605.09;;;1.95;100.00
56721;BME280;53183;47.412;18.884;2023-12-29T08:05:28;99606.63;;;2.07;100.00
56721;BME280;53183;47.412;18.884;2023-12-29T08:07:56;99603.06;;;2.14;100.00
56721;BME280;53183;47.412;18.884;2023-12-29T08:10:25;99610.69;;;2.23;100.00
56721;BME280;53183;47.412;18.884;2023-12-29T08:12:54;99614.78;;;2.37;100.00
56721;BME280;53183;47.412;18.884;2023-12-29T08:15:26;99622.44;;;2.46;100.00
56721;BME280;53183;47.412;18.884;2023-12-29T08:17:55;99626.44;;;2.65;100.00
56721;BME280;53183;47.412;18.884;2023-12-29T08:20:22;99621.94;;;2.73;100.00
56721;BME280;53183;47.412;18.884;2023-12-29T08:22:55;99628.75;;;2.79;100.00
56721;BME280;53183;47.412;18.884;2023-12-29T08:25:23;99623.47;;;2.82;100.00
56721;BME280;53183;47.412;18.884;2023-12-29T08:27:50;99629.91;;;3.08;100.00
56721;BME280;53183;47.412;18.884;2023-12-29T08:30:23;99625.38;;;3.16;100.00
56721;BME280;53183;47.412;18.884;2023-12-29T08:32:51;99625.25;;;3.22;100.00
56721;BME280;53183;47.412;18.884;2023-12-29T08:35:20;99622.50;;;3.28;100.00
56721;BME280;53183;47.412;18.884;2023-12-29T08:37:49;99636.41;;;3.30;100.00
56721;BME280;53183;47.412;18.884;2023-12-29T08:40:17;99623.69;;;3.53;100.00
56721;BME280;53183;47.412;18.884;2023-12-29T08:42:44;99630.22;;;3.71;100.00
56721;BME280;53183;47.412;18.884;2023-12-29T08:45:14;99639.66;;;3.79;100.00
56721;BME280;53183;47.412;18.884;2023-12-29T08:47:42;99627.75;;;4.01;100.00
56721;BME280;53183;47.412;18.884;2023-12-29T08:50:09;99637.16;;;4.10;100.00
56721;BME280;53183;47.412;18.884;2023-12-29T08:52:39;99627.37;;;4.16;100.00
56721;BME280;53183;47.412;18.884;2023-12-29T08:55:08;99624.25;;;4.36;100.00
56721;BME280;53183;47.412;18.884;2023-12-29T08:57:36;99627.56;;;4.43;100.00
56721;BME280;53183;47.412;18.884;2023-12-29T09:00:04;99640.13;;;4.63;100.00
56721;BME280;53183;47.412;18.884;2023-12-29T09:02:32;99626.72;;;4.74;100.00
56721;BME280;53183;47.412;18.884;2023-12-29T09:04:59;99634.47;;;4.78;100.00
56721;BME280;53183;47.412;18.884;2023-12-29T09:07:27;99634.94;;;4.92;100.00
56721;BME280;53183;47.412;18.884;2023-12-29T09:09:55;99639.25;;;4.93;100.00
56721;BME280;53183;47.412;18.884;2023-12-29T09:12:23;99632.47;;;4.86;100.00
56721;BME280;53183;47.412;18.884;2023-12-29T09:14:51;99639.25;;;4.93;100.00
56721;BME280;53183;47.412;18.884;2023-12-29T09:17:18;99639.31;;;4.92;100.00
56721;BME280;53183;47.412;18.884;2023-12-29T09:19:46;99633.75;;;5.03;100.00
56721;BME280;53183;47.412;18.884;2023-12-29T09:22:27;99629.88;;;5.16;100.00
56721;BME280;53183;47.412;18.884;2023-12-29T09:24:55;99631.69;;;5.14;100.00
56721;BME280;53183;47.412;18.884;2023-12-29T09:27:23;99623.78;;;5.15;100.00
56721;BME280;53183;47.412;18.884;2023-12-29T09:29:52;99625.88;;;5.04;100.00
56721;BME280;53183;47.412;18.884;2023-12-29T09:32:20;99611.72;;;5.10;100.00
56721;BME280;53183;47.412;18.884;2023-12-29T09:34:47;99616.69;;;5.19;100.00
56721;BME280;53183;47.412;18.884;2023-12-29T09:37:15;99626.31;;;5.18;100.00
56721;BME280;53183;47.412;18.884;2023-12-29T09:39:43;99627.06;;;5.24;100.00
56721;BME280;53183;47.412;18.884;2023-12-29T09:42:17;99621.72;;;4.97;100.00
56721;BME280;53183;47.412;18.884;2023-12-29T09:44:51;99620.72;;;5.01;100.00
56721;BME280;53183;47.412;18.884;2023-12-29T09:47:22;99632.50;;;5.16;100.00
56721;BME280;53183;47.412;18.884;2023-12-29T09:49:53;99628.16;;;5.15;100.00
56721;BME280;53183;47.412;18.884;2023-12-29T09:52:22;99625.50;;;5.16;100.00
56721;BME280;53183;47.412;18.884;2023-12-29T09:54:52;99631.47;;;5.22;100.00
56721;BME280;53183;47.412;18.884;2023-12-29T09:57:20;99626.06;;;5.26;100.00
56721;BME280;53183;47.412;18.884;2023-12-29T09:59:49;99631.03;;;5.07;100.00
56721;BME280;53183;47.412;18.884;2023-12-29T10:02:20;99628.41;;;5.07;100.00
56721;BME280;53183;47.412;18.884;2023-12-29T10:04:49;99614.47;;;5.07;100.00
56721;BME280;53183;47.412;18.884;2023-12-29T10:07:24;99616.06;;;5.11;100.00
56721;BME280;53183;47.412;18.884;2023-12-29T10:09:57;99609.00;;;5.13;100.00
56721;BME280;53183;47.412;18.884;2023-12-29T10:12:27;99602.56;;;5.25;100.00
56721;BME280;53183;47.412;18.884;2023-12-29T10:20:44;99586.84;;;5.53;100.00
56721;BME280;53183;47.412;18.884;2023-12-29T10:23:28;99585.41;;;5.69;100.00
56721;BME280;53183;47.412;18.884;2023-12-29T10:25:59;99592.53;;;5.94;100.00
56721;BME280;53183;47.412;18.884;2023-12-29T10:28:28;99592.28;;;6.01;100.00
56721;BME280;53183;47.412;18.884;2023-12-29T10:30:55;99602.19;;;5.92;100.00
56721;BME280;53183;47.412;18.884;2023-12-29T10:33:23;99597.59;;;6.00;100.00
56721;BME280;53183;47.412;18.884;2023-12-29T10:35:57;99593.03;;;6.05;100.00
56721;BME280;53183;47.412;18.884;2023-12-29T10:38:28;99594.50;;;6.14;100.00
56721;BME280;53183;47.412;18.884;2023-12-29T10:41:28;99588.38;;;6.13;100.00
56721;BME280;53183;47.412;18.884;2023-12-29T10:44:06;99584.22;;;6.32;100.00
56721;BME280;53183;47.412;18.884;2023-12-29T10:46:33;99583.31;;;6.33;100.00
56721;BME280;53183;47.412;18.884;2023-12-29T10:49:11;99571.53;;;6.45;100.00
56721;BME280;53183;47.412;18.884;2023-12-29T10:51:39;99574.16;;;6.45;100.00
56721;BME280;53183;47.412;18.884;2023-12-29T10:54:06;99562.12;;;6.63;100.00
56721;BME280;53183;47.412;18.884;2023-12-29T10:56:34;99561.91;;;6.69;100.00
56721;BME280;53183;47.412;18.884;2023-12-29T10:59:03;99558.41;;;6.92;100.00
56721;BME280;53183;47.412;18.884;2023-12-29T11:01:32;99551.66;;;7.09;100.00
56721;BME280;53183;47.412;18.884;2023-12-29T11:04:09;99556.03;;;7.32;100.00
56721;BME280;53183;47.412;18.884;2023-12-29T11:06:44;99542.75;;;7.35;100.00
56721;BME280;53183;47.412;18.884;2023-12-29T11:09:14;99540.12;;;7.35;100.00
56721;BME280;53183;47.412;18.884;2023-12-29T11:11:43;99533.47;;;7.48;100.00
56721;BME280;53183;47.412;18.884;2023-12-29T11:14:11;99531.91;;;7.64;100.00
56721;BME280;53183;47.412;18.884;2023-12-29T11:16:41;99530.50;;;7.78;100.00
56721;BME280;53183;47.412;18.884;2023-12-29T11:19:11;99537.19;;;7.85;100.00
56721;BME280;53183;47.412;18.884;2023-12-29T11:21:39;99544.56;;;7.77;100.00
56721;BME280;53183;47.412;18.884;2023-12-29T11:24:09;99544.84;;;7.91;100.00
56721;BME280;53183;47.412;18.884;2023-12-29T11:26:39;99534.31;;;7.91;100.00
56721;BME280;53183;47.412;18.884;2023-12-29T11:29:08;99528.37;;;7.86;100.00
56721;BME280;53183;47.412;18.884;2023-12-29T11:31:35;99527.28;;;7.91;100.00
56721;BME280;53183;47.412;18.884;2023-12-29T11:34:10;99525.25;;;7.98;100.00
56721;BME280;53183;47.412;18.884;2023-12-29T11:36:44;99512.47;;;7.89;100.00
56721;BME280;53183;47.412;18.884;2023-12-29T11:39:33;99509.59;;;7.95;100.00
56721;BME280;53183;47.412;18.884;2023-12-29T11:42:28;99510.03;;;8.05;100.00
56721;BME280;53183;47.412;18.884;2023-12-29T11:47:52;99496.25;;;7.99;100.00
56721;BME280;53183;47.412;18.884;2023-12-29T11:50:33;99506.09;;;8.15;100.00
56721;BME280;53183;47.412;18.884;2023-12-29T11:53:00;99500.19;;;8.10;100.00
56721;BME280;53183;47.412;18.884;2023-12-29T11:55:32;99496.75;;;8.08;100.00
56721;BME280;53183;47.412;18.884;2023-12-29T11:57:59;99494.47;;;8.00;100.00
56721;BME280;53183;47.412;18.884;2023-12-29T12:00:42;99494.12;;;8.08;100.00
56721;BME280;53183;47.412;18.884;2023-12-29T12:03:21;99494.25;;;8.05;100.00
56721;BME280;53183;47.412;18.884;2023-12-29T12:05:51;99493.31;;;7.85;100.00
56721;BME280;53183;47.412;18.884;2023-12-29T12:08:33;99493.28;;;7.87;100.00
56721;BME280;53183;47.412;18.884;2023-12-29T12:14:04;99485.72;;;7.99;100.00
56721;BME280;53183;47.412;18.884;2023-12-29T12:16:53;99484.66;;;8.04;100.00
56721;BME280;53183;47.412;18.884;2023-12-29T12:19:36;99485.63;;;8.01;100.00
56721;BME280;53183;47.412;18.884;2023-12-29T12:22:05;99490.78;;;7.84;100.00
56721;BME280;53183;47.412;18.884;2023-12-29T12:24:35;99493.59;;;7.79;100.00
56721;BME280;53183;47.412;18.884;2023-12-29T12:27:03;99485.75;;;7.98;100.00
56721;BME280;53183;47.412;18.884;2023-12-29T12:29:37;99480.88;;;7.89;100.00
56721;BME280;53183;47.412;18.884;2023-12-29T12:32:06;99481.81;;;7.88;100.00
56721;BME280;53183;47.412;18.884;2023-12-29T12:34:37;99478.13;;;7.92;100.00
56721;BME280;53183;47.412;18.884;2023-12-29T12:37:05;99477.88;;;7.98;100.00
56721;BME280;53183;47.412;18.884;2023-12-29T12:39:40;99477.41;;;8.09;100.00
56721;BME280;53183;47.412;18.884;2023-12-29T12:42:09;99477.22;;;8.13;100.00
56721;BME280;53183;47.412;18.884;2023-12-29T12:44:39;99470.56;;;8.05;100.00
56721;BME280;53183;47.412;18.884;2023-12-29T12:47:15;99474.44;;;8.16;100.00
56721;BME280;53183;47.412;18.884;2023-12-29T12:49:46;99471.81;;;8.16;100.00
56721;BME280;53183;47.412;18.884;2023-12-29T12:52:15;99476.66;;;8.26;100.00
56721;BME280;53183;47.412;18.884;2023-12-29T12:54:43;99477.44;;;8.28;100.00
56721;BME280;53183;47.412;18.884;2023-12-29T12:57:11;99484.19;;;8.14;100.00
56721;BME280;53183;47.412;18.884;2023-12-29T12:59:39;99479.38;;;8.24;100.00
56721;BME280;53183;47.412;18.884;2023-12-29T13:02:08;99479.81;;;8.34;100.00
56721;BME280;53183;47.412;18.884;2023-12-29T13:04:40;99478.38;;;8.27;100.00
56721;BME280;53183;47.412;18.884;2023-12-29T13:07:09;99472.94;;;8.11;100.00
56721;BME280;53183;47.412;18.884;2023-12-29T13:09:42;99471.25;;;8.29;100.00
56721;BME280;53183;47.412;18.884;2023-12-29T13:12:11;99465.47;;;8.41;100.00
56721;BME280;53183;47.412;18.884;2023-12-29T13:14:39;99472.12;;;8.29;100.00